Time;durP1;ratioP1;P1;durP2;ratioP2;P2;SDS_P1;SDS_P2;PMS_P1;PMS_P2;Temp;Humidity;BMP_temperature;BMP_pressure;BME280_temperature;BME280_humidity;BME280_pressure;Samples;Min_cycle;Max_cycle;Signal;HPM_P1;HPM_P2
2024/03/03 00:00:06;;;;;;;1999.90;999.90;;;7.10;99.90;;;;;;5052651;28;20036;-81
2024/03/03 00:02:31;;;;;;;1999.90;999.90;;;7.00;99.90;;;;;;5053952;28;20082;-81
2024/03/03 00:04:57;;;;;;;1999.90;999.90;;;7.00;99.90;;;;;;5060225;28;20021;-80
2024/03/03 00:07:23;;;;;;;1999.90;999.90;;;6.90;99.90;;;;;;5052697;28;20116;-81
2024/03/03 00:09:48;;;;;;;1999.90;999.90;;;6.80;99.90;;;;;;5052427;28;20063;-81
2024/03/03 00:12:14;;;;;;;1999.90;999.90;;;6.80;99.90;;;;;;5065383;28;20047;-81
2024/03/03 00:14:40;;;;;;;1999.90;999.90;;;6.80;99.90;;;;;;5051582;28;20029;-81
2024/03/03 00:17:05;;;;;;;1999.90;999.90;;;6.80;99.90;;;;;;5052654;28;20028;-81
2024/03/03 00:19:31;;;;;;;1999.90;999.90;;;6.80;99.90;;;;;;5055783;28;20543;-80
2024/03/03 00:21:56;;;;;;;1999.90;999.90;;;6.80;99.90;;;;;;5052436;28;20017;-81
2024/03/03 00:24:22;;;;;;;1999.90;999.90;;;6.80;99.90;;;;;;5052274;28;20033;-81
2024/03/03 00:26:48;;;;;;;1999.90;999.90;;;6.70;99.90;;;;;;5060591;28;20037;-81
2024/03/03 00:29:14;;;;;;;1999.90;999.90;;;6.70;99.90;;;;;;5052464;28;20025;-81
2024/03/03 00:31:43;;;;;;;1999.90;999.90;;;6.70;99.90;;;;;;5052677;28;20064;-81
2024/03/03 00:34:09;;;;;;;1999.90;999.90;;;6.60;99.90;;;;;;5054834;28;20032;-81
2024/03/03 00:36:35;;;;;;;1999.90;999.90;;;6.60;99.90;;;;;;5052069;28;20078;-81
2024/03/03 00:39:01;;;;;;;1999.90;999.90;;;6.60;99.90;;;;;;5061385;28;20025;-81
2024/03/03 00:41:26;;;;;;;1999.90;999.90;;;6.60;99.90;;;;;;5056003;28;20037;-80
2024/03/03 00:43:52;;;;;;;1999.90;999.90;;;6.60;99.90;;;;;;5052064;28;20178;-81
2024/03/03 00:46:17;;;;;;;1999.90;999.90;;;6.60;99.90;;;;;;5053623;28;20045;-81
2024/03/03 00:48:43;;;;;;;1999.90;999.90;;;6.70;99.90;;;;;;5053670;28;20036;-81
2024/03/03 00:51:09;;;;;;;1999.90;999.90;;;6.60;99.90;;;;;;5051897;28;20079;-81
2024/03/03 00:53:34;;;;;;;1999.90;999.90;;;6.50;99.90;;;;;;5054575;28;20377;-80
2024/03/03 00:56:00;;;;;;;1999.90;999.90;;;6.40;99.90;;;;;;5051322;28;20033;-81
2024/03/03 00:58:26;;;;;;;1999.90;999.90;;;6.40;99.90;;;;;;5051261;28;20491;-81
2024/03/03 01:00:51;;;;;;;1999.90;999.90;;;6.40;99.90;;;;;;5053491;28;20509;-81
2024/03/03 01:03:17;;;;;;;1999.90;999.90;;;6.40;99.90;;;;;;5053269;28;20031;-81
2024/03/03 01:05:42;;;;;;;1999.90;999.90;;;6.40;99.90;;;;;;5055411;28;20448;-81
2024/03/03 01:08:08;;;;;;;1999.90;999.90;;;6.40;99.90;;;;;;5053740;28;20039;-81
2024/03/03 01:10:34;;;;;;;1999.90;999.90;;;6.30;99.90;;;;;;5053230;28;20064;-81
2024/03/03 01:13:00;;;;;;;1999.90;999.90;;;6.30;99.90;;;;;;5063201;28;20032;-81
2024/03/03 01:15:25;;;;;;;1999.90;999.90;;;6.30;99.90;;;;;;5053537;28;20123;-81
2024/03/03 01:17:51;;;;;;;1999.90;999.90;;;6.30;99.90;;;;;;5052519;28;20045;-81
2024/03/03 01:20:16;;;;;;;1999.90;999.90;;;6.20;99.90;;;;;;5064215;28;20027;-80
2024/03/03 01:22:42;;;;;;;1999.90;999.90;;;6.20;99.90;;;;;;5052701;28;20021;-80
2024/03/03 01:25:08;;;;;;;1999.90;999.90;;;6.20;99.90;;;;;;5051879;28;20079;-80
2024/03/03 01:27:33;;;;;;;1999.90;999.90;;;6.20;99.90;;;;;;5061273;28;20016;-80
2024/03/03 01:30:00;;;;;;;1999.90;999.90;;;6.10;99.90;;;;;;5055193;28;20431;-81
2024/03/03 01:32:25;;;;;;;1999.90;999.90;;;6.10;99.90;;;;;;5053531;28;20025;-80
2024/03/03 01:34:51;;;;;;;1999.90;999.90;;;6.10;99.90;;;;;;5061578;28;20037;-80
2024/03/03 01:37:20;;;;;;;1999.90;999.90;;;6.00;99.90;;;;;;5055629;28;20495;-80
2024/03/03 01:39:46;;;;;;;1999.90;999.90;;;6.00;99.90;;;;;;5057097;28;20037;-81
2024/03/03 01:42:11;;;;;;;1999.90;999.90;;;6.00;99.90;;;;;;5058211;28;20487;-80
2024/03/03 01:44:37;;;;;;;1999.90;999.90;;;5.90;99.90;;;;;;5055252;28;20024;-81
2024/03/03 01:47:04;;;;;;;1999.90;999.90;;;5.90;99.90;;;;;;5055989;28;20029;-81
2024/03/03 01:49:33;;;;;;;1999.90;999.90;;;5.80;99.90;;;;;;5057795;28;20131;-81
2024/03/03 01:52:01;;;;;;;1999.90;999.90;;;5.70;99.90;;;;;;5056586;28;20021;-80
2024/03/03 01:54:28;;;;;;;1999.90;999.90;;;5.70;99.90;;;;;;5065913;28;20019;-80
2024/03/03 01:56:55;;;;;;;1999.90;999.90;;;5.70;99.90;;;;;;5062152;28;20115;-81
2024/03/03 01:59:22;;;;;;;1999.90;999.90;;;5.70;99.90;;;;;;5055161;28;20562;-80
2024/03/03 02:01:48;;;;;;;1999.90;999.90;;;5.70;99.90;;;;;;5057727;28;20541;-81
2024/03/03 02:04:15;;;;;;;1999.90;999.90;;;5.60;99.90;;;;;;5054951;28;20025;-80
2024/03/03 02:06:42;;;;;;;1999.90;999.90;;;5.60;99.90;;;;;;5054795;28;20064;-80
2024/03/03 02:09:10;;;;;;;1999.90;999.90;;;5.50;99.90;;;;;;5056603;28;20044;-80
2024/03/03 02:11:36;;;;;;;1999.90;999.90;;;5.50;99.90;;;;;;5056285;28;20411;-80
2024/03/03 02:14:02;;;;;;;1999.90;999.90;;;5.40;99.90;;;;;;5056629;28;20028;-80
2024/03/03 02:16:27;;;;;;;1999.90;999.90;;;5.50;99.90;;;;;;5047197;28;20025;-80
2024/03/03 02:18:53;;;;;;;1999.90;999.90;;;5.50;99.90;;;;;;5055779;28;20431;-80
2024/03/03 02:21:23;;;;;;;1999.90;999.90;;;5.50;99.90;;;;;;5058837;28;20025;-80
2024/03/03 02:23:49;;;;;;;1999.90;999.90;;;5.50;99.90;;;;;;5054538;28;20052;-80
2024/03/03 02:26:18;;;;;;;1999.90;999.90;;;5.50;99.90;;;;;;5054618;28;20449;-80
2024/03/03 02:28:44;;;;;;;1999.90;999.90;;;5.40;99.90;;;;;;5059954;28;20029;-80
2024/03/03 02:31:09;;;;;;;1999.90;999.90;;;5.40;99.90;;;;;;5055813;28;20085;-80
2024/03/03 02:33:35;;;;;;;1999.90;999.90;;;5.40;99.90;;;;;;5054229;28;20170;-80
2024/03/03 02:36:01;;;;;;;1999.90;999.90;;;5.40;99.90;;;;;;5057213;28;20415;-80
2024/03/03 02:38:26;;;;;;;1999.90;999.90;;;5.30;99.90;;;;;;5054319;28;20505;-80
2024/03/03 02:40:52;;;;;;;1999.90;999.90;;;5.30;99.90;;;;;;5065783;28;20104;-80
2024/03/03 02:43:17;;;;;;;1999.90;999.90;;;5.30;99.90;;;;;;5056366;28;20052;-80
2024/03/03 02:45:43;;;;;;;1999.90;999.90;;;5.30;99.90;;;;;;5052993;28;20033;-80
2024/03/03 02:48:09;;;;;;;1999.90;999.90;;;5.30;99.90;;;;;;5055690;28;20381;-80
2024/03/03 02:50:34;;;;;;;1999.90;999.90;;;5.30;99.90;;;;;;5053969;28;20509;-80
2024/03/03 02:53:00;;;;;;;1999.90;999.90;;;5.30;99.90;;;;;;5055530;28;20035;-80
2024/03/03 02:55:26;;;;;;;1999.90;999.90;;;5.20;99.90;;;;;;5055788;28;20025;-80
2024/03/03 02:57:52;;;;;;;1999.90;999.90;;;5.20;99.90;;;;;;5054001;28;20394;-80
2024/03/03 03:00:17;;;;;;;1999.90;999.90;;;5.20;99.90;;;;;;5062729;28;20017;-80
2024/03/03 03:02:43;;;;;;;1999.90;999.90;;;5.20;99.90;;;;;;5060734;28;20084;-80
2024/03/03 03:05:09;;;;;;;1999.90;999.90;;;5.30;99.90;;;;;;5053880;28;20086;-80
2024/03/03 03:07:35;;;;;;;1999.90;999.90;;;5.40;99.90;;;;;;5056422;28;20036;-80
2024/03/03 03:10:00;;;;;;;1999.90;999.90;;;5.40;99.90;;;;;;5053743;28;20061;-80
2024/03/03 03:12:26;;;;;;;1999.90;999.90;;;5.50;99.90;;;;;;5054998;28;20025;-80
2024/03/03 03:14:52;;;;;;;1999.90;999.90;;;5.50;99.90;;;;;;5058736;28;20036;-80
2024/03/03 03:17:17;;;;;;;1999.90;999.90;;;5.60;99.90;;;;;;5053453;28;20102;-80
2024/03/03 03:19:46;;;;;;;1999.90;999.90;;;5.50;99.90;;;;;;5053448;28;20053;-80
2024/03/03 03:22:12;;;;;;;1999.90;999.90;;;5.50;99.90;;;;;;5059539;28;20028;-80
2024/03/03 03:24:39;;;;;;;1999.90;999.90;;;5.50;99.90;;;;;;5053398;28;20554;-80
2024/03/03 03:27:04;;;;;;;1999.90;999.90;;;5.40;99.90;;;;;;5054632;28;20048;-80
2024/03/03 03:29:30;;;;;;;1999.90;999.90;;;5.40;99.90;;;;;;5064759;28;20044;-81
2024/03/03 03:31:56;;;;;;;1999.90;999.90;;;5.40;99.90;;;;;;5054540;28;20025;-80
2024/03/03 03:34:22;;;;;;;1999.90;999.90;;;5.40;99.90;;;;;;5060474;28;20013;-79
2024/03/03 03:36:47;;;;;;;1999.90;999.90;;;5.40;99.90;;;;;;5053187;28;20025;-80
2024/03/03 03:39:13;;;;;;;1999.90;999.90;;;5.40;99.90;;;;;;5053200;28;20033;-80
2024/03/03 03:41:47;;;;;;;1999.90;999.90;;;5.30;99.90;;;;;;5067449;28;20016;-80
2024/03/03 03:44:13;;;;;;;1999.90;999.90;;;5.20;99.90;;;;;;5055858;28;20052;-80
2024/03/03 03:46:39;;;;;;;1999.90;999.90;;;5.20;99.90;;;;;;5052824;28;20033;-80
2024/03/03 03:49:08;;;;;;;1999.90;999.90;;;5.20;99.90;;;;;;5060986;28;20066;-80
2024/03/03 03:51:33;;;;;;;1999.90;999.90;;;5.10;99.90;;;;;;5059401;28;20025;-80
2024/03/03 03:53:59;;;;;;;1999.90;999.90;;;5.10;99.90;;;;;;5053848;28;20491;-80
2024/03/03 03:56:25;;;;;;;1999.90;999.90;;;5.00;99.90;;;;;;5060758;28;20017;-80
2024/03/03 03:58:51;;;;;;;1999.90;999.90;;;5.00;99.90;;;;;;5055605;28;20049;-80
2024/03/03 04:01:20;;;;;;;1999.90;999.90;;;4.90;99.90;;;;;;5052847;28;20113;-79
2024/03/03 04:03:46;;;;;;;1999.90;999.90;;;4.90;99.90;;;;;;5065383;28;20005;-80
2024/03/03 04:06:12;;;;;;;1999.90;999.90;;;4.90;99.90;;;;;;5054147;28;20024;-80
2024/03/03 04:08:37;;;;;;;1999.90;999.90;;;4.90;99.90;;;;;;5052527;28;20395;-80
2024/03/03 04:11:03;;;;;;;1999.90;999.90;;;4.90;99.90;;;;;;5054226;28;20096;-80
2024/03/03 04:13:29;;;;;;;1999.90;999.90;;;4.90;99.90;;;;;;5053456;28;20060;-80
2024/03/03 04:15:54;;;;;;;1999.90;999.90;;;4.90;99.90;;;;;;5052164;28;20155;-80
2024/03/03 04:18:23;;;;;;;1999.90;999.90;;;4.90;99.90;;;;;;5056303;28;20052;-80
2024/03/03 04:20:49;;;;;;;1999.90;999.90;;;5.00;99.90;;;;;;5053843;28;20036;-80
2024/03/03 04:23:17;;;;;;;1999.90;999.90;;;5.00;99.90;;;;;;5054855;28;20029;-80
2024/03/03 04:25:42;;;;;;;1999.90;999.90;;;5.00;99.90;;;;;;5056638;28;20025;-79
2024/03/03 04:28:10;;;;;;;1999.90;999.90;;;5.00;99.90;;;;;;5052083;28;20116;-79
2024/03/03 04:30:38;;;;;;;1999.90;999.90;;;5.10;99.90;;;;;;5056416;28;20032;-80
2024/03/03 04:33:04;;;;;;;1999.90;999.90;;;5.10;99.90;;;;;;5056832;28;20033;-80
2024/03/03 04:35:30;;;;;;;1999.90;999.90;;;5.20;99.90;;;;;;5052075;28;20032;-80
2024/03/03 04:37:56;;;;;;;1999.90;999.90;;;5.30;99.90;;;;;;5054389;28;20029;-79
2024/03/03 04:40:22;;;;;;;1999.90;999.90;;;5.20;99.90;;;;;;5052097;28;20499;-80
2024/03/03 04:42:47;;;;;;;1999.90;999.90;;;5.20;99.90;;;;;;5051959;28;20029;-79
2024/03/03 04:45:14;;;;;;;1999.90;999.90;;;5.20;99.90;;;;;;5059266;28;20144;-80
2024/03/03 04:47:41;;;;;;;1999.90;999.90;;;5.10;99.90;;;;;;5053226;28;20521;-79
2024/03/03 04:50:07;;;;;;;1999.90;999.90;;;5.10;99.90;;;;;;5052005;28;20021;-80
2024/03/03 04:52:37;;;;;;;1999.90;999.90;;;5.10;99.90;;;;;;5058041;28;20029;-80
2024/03/03 04:55:04;;;;;;;1999.90;999.90;;;5.10;99.90;;;;;;5053430;28;20017;-80
2024/03/03 04:57:33;;;;;;;1999.90;999.90;;;5.10;99.90;;;;;;5055211;28;20372;-80
2024/03/03 04:59:59;;;;;;;1999.90;999.90;;;5.20;99.90;;;;;;5055262;28;20107;-80
2024/03/03 05:02:25;;;;;;;1999.90;999.90;;;5.20;99.90;;;;;;5051761;28;20067;-80
2024/03/03 05:04:50;;;;;;;1999.90;999.90;;;5.20;99.90;;;;;;5061065;28;20009;-80
2024/03/03 05:07:16;;;;;;;1999.90;999.90;;;5.10;99.90;;;;;;5055569;28;20044;-80
2024/03/03 05:09:42;;;;;;;1999.90;999.90;;;5.10;99.90;;;;;;5055983;28;20017;-80
2024/03/03 05:12:08;;;;;;;1999.90;999.90;;;5.10;99.90;;;;;;5063145;28;20013;-80
2024/03/03 05:14:35;;;;;;;1999.90;999.90;;;5.10;99.90;;;;;;5060031;28;20028;-80
2024/03/03 05:17:04;;;;;;;1999.90;999.90;;;5.10;99.90;;;;;;5079824;28;20034;-79
2024/03/03 05:19:29;;;;;;;1999.90;999.90;;;5.00;99.90;;;;;;5062374;28;20055;-80
2024/03/03 05:21:55;;;;;;;1999.90;999.90;;;5.00;99.90;;;;;;5060769;28;20559;-80
2024/03/03 05:24:21;;;;;;;1999.90;999.90;;;5.00;99.90;;;;;;5055727;28;20055;-80
2024/03/03 05:26:47;;;;;;;1999.90;999.90;;;5.00;99.90;;;;;;5057142;28;20013;-79
2024/03/03 05:29:13;;;;;;;1999.90;999.90;;;5.10;99.90;;;;;;5056684;28;20067;-79
2024/03/03 05:31:41;;;;;;;1999.90;999.90;;;5.20;99.90;;;;;;5055590;28;20025;-79
2024/03/03 05:34:12;;;;;;;1999.90;999.90;;;5.20;99.90;;;;;;5061279;28;20495;-79
2024/03/03 05:36:48;;;;;;;1999.90;999.90;;;5.20;99.90;;;;;;5055674;28;20021;-80
2024/03/03 05:39:15;;;;;;;1999.90;999.90;;;5.30;99.90;;;;;;5055410;28;20060;-79
2024/03/03 05:41:41;;;;;;;1999.90;999.90;;;5.20;99.90;;;;;;5060052;28;20036;-79
2024/03/03 05:44:07;;;;;;;1999.90;999.90;;;5.20;99.90;;;;;;5056796;28;20036;-80
2024/03/03 05:46:39;;;;;;;1999.90;999.90;;;5.20;99.90;;;;;;5055898;28;20029;-80
2024/03/03 05:49:05;;;;;;;1999.90;999.90;;;5.20;99.90;;;;;;5062100;28;20037;-79
2024/03/03 05:51:31;;;;;;;1999.90;999.90;;;5.20;99.90;;;;;;5056928;28;20531;-79
2024/03/03 05:53:57;;;;;;;1999.90;999.90;;;5.10;99.90;;;;;;5058781;28;20029;-79
2024/03/03 05:56:23;;;;;;;1999.90;999.90;;;5.10;99.90;;;;;;5055461;28;20025;-80
2024/03/03 05:58:49;;;;;;;1999.90;999.90;;;5.00;99.90;;;;;;5064869;28;20010;-80
2024/03/03 06:01:14;;;;;;;1999.90;999.90;;;4.90;99.90;;;;;;5060612;28;20036;-79
2024/03/03 06:03:41;;;;;;;1999.90;999.90;;;4.90;99.90;;;;;;5055119;28;20377;-80
2024/03/03 06:06:08;;;;;;;1999.90;999.90;;;4.80;99.90;;;;;;5061791;28;20021;-80
2024/03/03 06:08:35;;;;;;;1999.90;999.90;;;4.80;99.90;;;;;;5056872;28;20033;-80
2024/03/03 06:11:01;;;;;;;1999.90;999.90;;;4.80;99.90;;;;;;5056123;28;20020;-80
2024/03/03 06:13:26;;;;;;;1999.90;999.90;;;4.70;99.90;;;;;;5056756;28;20495;-80
2024/03/03 06:15:52;;;;;;;1999.90;999.90;;;4.70;99.90;;;;;;5052883;28;20443;-80
2024/03/03 06:18:18;;;;;;;1999.90;999.90;;;4.60;99.90;;;;;;5054869;28;20084;-79
2024/03/03 06:20:43;;;;;;;1999.90;999.90;;;4.60;99.90;;;;;;5057545;28;20029;-80
2024/03/03 06:23:12;;;;;;;1999.90;999.90;;;4.70;99.90;;;;;;5054601;28;20029;-79
2024/03/03 06:25:38;;;;;;;1999.90;999.90;;;4.70;99.90;;;;;;5059187;28;20048;-79
2024/03/03 06:28:04;;;;;;;1999.90;999.90;;;4.60;99.90;;;;;;5056188;28;20021;-79
2024/03/03 06:30:29;;;;;;;1999.90;999.90;;;4.60;99.90;;;;;;5054366;28;20499;-80
2024/03/03 06:32:55;;;;;;;1999.90;999.90;;;4.60;99.90;;;;;;5064812;28;20021;-79
2024/03/03 06:35:20;;;;;;;1999.90;999.90;;;4.50;99.90;;;;;;5055815;28;20144;-79
2024/03/03 06:37:51;;;;;;;1999.90;999.90;;;4.50;99.90;;;;;;5054266;28;20120;-79
2024/03/03 06:40:17;;;;;;;1999.90;999.90;;;4.40;99.90;;;;;;5057592;28;20036;-79
2024/03/03 06:42:43;;;;;;;1999.90;999.90;;;4.40;99.90;;;;;;5054363;28;20043;-79
2024/03/03 06:45:09;;;;;;;1999.90;999.90;;;4.40;99.90;;;;;;5055844;28;20033;-79
2024/03/03 06:47:35;;;;;;;1999.90;999.90;;;4.50;99.90;;;;;;5060201;28;20047;-79
2024/03/03 06:50:02;;;;;;;1999.90;999.90;;;4.40;99.90;;;;;;5054051;28;20080;-79
2024/03/03 06:52:30;;;;;;;1999.90;999.90;;;4.40;99.90;;;;;;5061325;28;20013;-79
2024/03/03 06:54:56;;;;;;;1999.90;999.90;;;4.40;99.90;;;;;;5069289;28;20032;-79
2024/03/03 06:57:22;;;;;;;1999.90;999.90;;;4.40;99.90;;;;;;5054153;28;20123;-79
2024/03/03 06:59:47;;;;;;;1999.90;999.90;;;4.40;99.90;;;;;;5055538;28;20499;-79
2024/03/03 07:02:13;;;;;;;1999.90;999.90;;;4.50;99.90;;;;;;5060059;28;20029;-79
2024/03/03 07:04:39;;;;;;;1999.90;999.90;;;4.50;99.90;;;;;;5053758;28;20031;-79
2024/03/03 07:07:05;;;;;;;1999.90;999.90;;;4.60;99.90;;;;;;5053687;28;20039;-79
2024/03/03 07:09:31;;;;;;;1999.90;999.90;;;4.60;99.90;;;;;;5055509;28;20052;-80
2024/03/03 07:11:57;;;;;;;1999.90;999.90;;;4.70;99.90;;;;;;5053698;28;20027;-79
2024/03/03 07:14:25;;;;;;;1999.90;999.90;;;4.80;99.90;;;;;;5061007;28;20069;-79
2024/03/03 07:16:51;;;;;;;1999.90;999.90;;;4.90;99.90;;;;;;5055986;28;20462;-80
2024/03/03 07:19:17;;;;;;;1999.90;999.90;;;5.00;99.90;;;;;;5053571;28;20084;-80
2024/03/03 07:21:43;;;;;;;1999.90;999.90;;;5.10;99.90;;;;;;5060674;28;20476;-79
2024/03/03 07:24:09;;;;;;;1999.90;999.90;;;5.20;99.90;;;;;;5053483;28;20028;-80
2024/03/03 07:26:35;;;;;;;1999.90;999.90;;;5.30;99.90;;;;;;5053597;28;20033;-79
2024/03/03 07:29:02;;;;;;;1999.90;999.90;;;5.40;99.90;;;;;;5056685;28;20021;-79
2024/03/03 07:31:29;;;;;;;1999.90;999.90;;;5.50;99.90;;;;;;5052813;28;20489;-79
2024/03/03 07:33:55;;;;;;;1999.90;999.90;;;5.60;99.90;;;;;;5053131;28;20024;-80
2024/03/03 07:36:20;;;;;;;1999.90;999.90;;;5.70;99.90;;;;;;5056307;28;20476;-79
2024/03/03 07:38:46;;;;;;;1999.90;999.90;;;5.80;99.90;;;;;;5053132;28;20569;-80
2024/03/03 07:41:12;;;;;;;1999.90;999.90;;;6.00;99.90;;;;;;5057660;28;20039;-79
2024/03/03 07:43:38;;;;;;;1999.90;999.90;;;6.20;99.90;;;;;;5054520;28;20097;-80
2024/03/03 07:46:03;;;;;;;1999.90;999.90;;;6.30;99.90;;;;;;5052984;28;20079;-80
2024/03/03 07:48:29;;;;;;;1999.90;999.90;;;6.40;99.90;;;;;;5056102;28;20029;-80
2024/03/03 07:50:55;;;;;;;1999.90;999.90;;;6.60;99.90;;;;;;5052956;28;20029;-80
2024/03/03 07:53:21;;;;;;;1999.90;999.90;;;6.70;99.90;;;;;;5053057;28;20029;-80
2024/03/03 07:55:47;;;;;;;1999.90;999.90;;;7.30;99.90;;;;;;5056341;28;20104;-81
2024/03/03 07:58:13;;;;;;;1999.90;999.90;;;9.90;99.90;;;;;;5052845;28;20017;-81
2024/03/03 08:00:40;;;;;;;1999.90;999.90;;;12.20;99.90;;;;;;5060091;28;20093;-81
2024/03/03 08:03:07;;;;;;;1999.90;999.90;;;13.20;99.90;;;;;;5055711;28;20025;-80
2024/03/03 08:05:33;;;;;;;1999.90;999.90;;;13.00;99.90;;;;;;5052605;28;20025;-80
2024/03/03 08:08:00;;;;;;;1999.90;999.90;;;11.40;99.90;;;;;;5057851;28;20033;-80
2024/03/03 08:10:26;;;;;;;1999.90;999.90;;;9.50;99.90;;;;;;5052649;28;20064;-80
2024/03/03 08:12:53;;;;;;;1999.90;999.90;;;8.50;99.90;;;;;;5053829;28;20025;-80
2024/03/03 08:15:20;;;;;;;1999.90;999.90;;;7.80;99.90;;;;;;5063541;28;20028;-79
2024/03/03 08:17:46;;;;;;;1999.90;999.90;;;7.30;99.90;;;;;;5053232;28;20037;-79
2024/03/03 08:20:12;;;;;;;1999.90;999.90;;;7.10;99.90;;;;;;5054110;28;20048;-80
2024/03/03 08:22:42;;;;;;;1999.90;999.90;;;7.20;99.90;;;;;;5054044;28;20052;-79
2024/03/03 08:25:09;;;;;;;1999.90;999.90;;;7.30;99.90;;;;;;5053714;28;20503;-80
2024/03/03 08:27:35;;;;;;;1999.90;999.90;;;7.40;99.90;;;;;;5054789;28;20021;-79
2024/03/03 08:30:05;;;;;;;1999.90;999.90;;;7.90;99.90;;;;;;5066968;28;20025;-80
2024/03/03 08:32:31;;;;;;;1999.90;999.90;;;8.20;99.90;;;;;;5032435;28;20030;-80
2024/03/03 08:34:58;;;;;;;1999.90;999.90;;;9.50;99.90;;;;;;5067598;28;20018;-80
2024/03/03 08:37:23;;;;;;;1999.90;999.90;;;12.50;99.90;;;;;;5033609;28;20032;-80
2024/03/03 08:39:49;;;;;;;1999.90;999.90;;;15.00;99.90;;;;;;5066236;28;20484;-80
2024/03/03 08:42:14;;;;;;;1999.90;999.90;;;15.60;99.90;;;;;;5037183;28;20037;-80
2024/03/03 08:44:40;;;;;;;1999.90;999.90;;;16.70;99.90;;;;;;5033518;28;20025;-80
2024/03/03 08:47:06;;;;;;;1999.90;999.90;;;16.70;99.90;;;;;;5036516;28;20030;-80
2024/03/03 08:49:33;;;;;;;1999.90;999.90;;;17.90;99.90;;;;;;5033511;28;20030;-81
2024/03/03 08:52:01;;;;;;;1999.90;999.90;;;18.10;99.90;;;;;;5033439;28;20029;-81
2024/03/03 08:54:26;;;;;;;1999.90;999.90;;;18.50;99.90;;;;;;5035262;28;20396;-81
2024/03/03 08:56:52;;;;;;;1999.90;999.90;;;19.20;99.90;;;;;;5033158;28;20036;-81
2024/03/03 08:59:17;;;;;;;1999.90;999.90;;;19.90;99.90;;;;;;5065318;28;20506;-81
2024/03/03 09:01:43;;;;;;;1999.90;999.90;;;19.70;99.90;;;;;;5033689;28;20033;-81
2024/03/03 09:04:09;;;;;;;1999.90;999.90;;;20.10;99.90;;;;;;5031733;28;20021;-81
2024/03/03 09:06:34;;;;;;;1999.90;999.90;;;20.00;99.90;;;;;;5032532;28;20554;-81
2024/03/03 09:09:04;;;;;;;1999.90;999.90;;;20.10;99.90;;;;;;5033609;28;20022;-81
2024/03/03 09:11:32;;;;;;;1999.90;999.90;;;19.90;99.90;;;;;;5037752;28;20100;-80
2024/03/03 09:14:00;;;;;;;1999.90;999.90;;;19.30;99.90;;;;;;5054341;28;20108;-81
2024/03/03 09:16:26;;;;;;;1999.90;999.90;;;19.50;99.90;;;;;;5052735;28;20025;-79
2024/03/03 09:18:55;;;;;;;1999.90;999.90;;;20.20;99.90;;;;;;5051504;28;20052;-80
2024/03/03 09:21:24;;;;;;;1999.90;999.90;;;20.50;99.90;;;;;;5056689;28;20480;-81
2024/03/03 09:23:50;;;;;;;1999.90;999.90;;;20.10;99.90;;;;;;5051830;28;20021;-80
2024/03/03 09:26:15;;;;;;;1999.90;999.90;;;19.90;99.90;;;;;;5059806;28;20112;-80
2024/03/03 09:28:41;;;;;;;1999.90;999.90;;;20.10;99.90;;;;;;5053052;28;20136;-81
2024/03/03 09:31:07;;;;;;;1999.90;999.90;;;20.20;99.90;;;;;;5052988;28;20502;-82
2024/03/03 09:33:33;;;;;;;1999.90;999.90;;;19.90;99.90;;;;;;5060531;28;20024;-79
2024/03/03 09:35:59;;;;;;;1999.90;999.90;;;20.00;99.90;;;;;;5053526;28;20116;-79
2024/03/03 09:38:25;;;;;;;1999.90;999.90;;;20.00;99.90;;;;;;5052898;28;20054;-78
2024/03/03 09:40:51;;;;;;;1999.90;999.90;;;19.90;99.90;;;;;;5054455;28;20029;-81
2024/03/03 09:43:17;;;;;;;1999.90;999.90;;;19.20;99.90;;;;;;5052992;28;20021;-82
2024/03/03 09:45:44;;;;;;;1999.90;999.90;;;17.70;99.90;;;;;;5051394;28;20025;-81
2024/03/03 09:48:12;;;;;;;1999.90;999.90;;;15.90;99.90;;;;;;5053175;28;20055;-81
2024/03/03 09:50:38;;;;;;;1999.90;999.90;;;14.30;99.90;;;;;;5051906;28;20033;-81
2024/03/03 09:53:08;;;;;;;1999.90;999.90;;;13.30;99.90;;;;;;5051617;28;20021;-77
2024/03/03 09:55:37;;;;;;;1999.90;999.90;;;12.90;99.90;;;;;;5057292;28;20028;-81
2024/03/03 09:58:03;;;;;;;1999.90;999.90;;;12.20;99.90;;;;;;5056317;28;20028;-78
2024/03/03 10:00:32;;;;;;;1999.90;999.90;;;12.00;99.90;;;;;;5055000;28;20025;-82
2024/03/03 10:03:00;;;;;;;1999.90;999.90;;;11.90;99.90;;;;;;5060310;28;20040;-81
2024/03/03 10:05:28;;;;;;;1999.90;999.90;;;11.70;99.90;;;;;;5056318;28;20040;-81
2024/03/03 10:07:59;;;;;;;1999.90;999.90;;;11.60;99.90;;;;;;5055365;28;20032;-81
2024/03/03 10:10:30;;;;;;;1999.90;999.90;;;11.40;99.90;;;;;;5056565;28;20033;-81
2024/03/03 10:12:58;;;;;;;1999.90;999.90;;;11.20;99.90;;;;;;5055919;28;20507;-78
2024/03/03 10:15:24;;;;;;;1999.90;999.90;;;11.40;99.90;;;;;;5056047;28;20025;-81
2024/03/03 10:17:53;;;;;;;1999.90;999.90;;;11.30;99.90;;;;;;5054158;28;20058;-82
2024/03/03 10:20:19;;;;;;;1999.90;999.90;;;11.10;99.90;;;;;;5054782;28;20545;-77
2024/03/03 10:22:45;;;;;;;1999.90;999.90;;;11.30;99.90;;;;;;5061193;28;20043;-81
2024/03/03 10:25:15;;;;;;;1999.90;999.90;;;10.90;99.90;;;;;;5058953;28;20035;-80
2024/03/03 10:27:44;;;;;;;1999.90;999.90;;;11.10;99.90;;;;;;5054451;28;20488;-81
2024/03/03 10:30:12;;;;;;;1999.90;999.90;;;10.90;99.90;;;;;;5059213;28;20077;-78
2024/03/03 10:32:41;;;;;;;1999.90;999.90;;;10.80;99.90;;;;;;5056611;28;20049;-81
2024/03/03 10:35:12;;;;;;;1999.90;999.90;;;10.90;99.90;;;;;;5054509;28;20115;-81
2024/03/03 10:37:55;;;;;;;1999.90;999.90;;;11.00;99.90;;;;;;5061672;28;20036;-78
2024/03/03 10:40:21;;;;;;;;;;;10.90;99.90;;;;;;5055101;28;20093;-81
2024/03/03 10:42:47;;;;;;;1999.90;999.90;;;11.00;99.90;;;;;;5054426;28;20295;-81
2024/03/03 10:45:14;;;;;;;1999.90;999.90;;;11.20;99.90;;;;;;5056024;28;20029;-77
2024/03/03 10:47:39;;;;;;;1999.90;999.90;;;11.40;99.90;;;;;;5055226;28;20029;-81
2024/03/03 10:50:15;;;;;;;1999.90;999.90;;;11.20;99.90;;;;;;5054115;28;20025;-78
2024/03/03 10:52:41;;;;;;;1999.90;999.90;;;11.10;99.90;;;;;;5055602;28;20067;-81
2024/03/03 10:55:10;;;;;;;1999.90;999.90;;;10.80;99.90;;;;;;5054479;28;20126;-81
2024/03/03 10:57:37;;;;;;;1999.90;999.90;;;10.90;99.90;;;;;;5057291;28;20053;-81
2024/03/03 11:00:04;;;;;;;1999.90;999.90;;;11.10;99.90;;;;;;5053936;28;20028;-82
2024/03/03 11:02:30;;;;;;;1999.90;999.90;;;10.90;99.90;;;;;;5055428;28;20025;-79
2024/03/03 11:04:57;;;;;;;1999.90;999.90;;;11.00;99.90;;;;;;5054591;28;20021;-78
2024/03/03 11:07:23;;;;;;;1999.90;999.90;;;11.00;99.90;;;;;;5056700;28;20083;-78
2024/03/03 11:09:50;;;;;;;1999.90;999.90;;;10.90;99.90;;;;;;5054890;28;20048;-81
2024/03/03 11:12:19;;;;;;;1999.90;999.90;;;10.80;99.90;;;;;;5061504;28;20069;-79
2024/03/03 11:14:47;;;;;;;1999.90;999.90;;;10.80;99.90;;;;;;5059353;28;20032;-82
2024/03/03 11:17:19;;;;;;;1999.90;999.90;;;10.90;99.90;;;;;;5053295;28;20082;-80
2024/03/03 11:19:46;;;;;;;1999.90;999.90;;;10.90;99.90;;;;;;5057649;28;20036;-78
2024/03/03 11:22:23;;;;;;;1999.90;999.90;;;11.10;99.90;;;;;;5053655;28;20495;-78
2024/03/03 11:25:13;;;;;;;1999.90;999.90;;;11.20;99.90;;;;;;5053555;28;20056;-82
2024/03/03 11:27:43;;;;;;;1999.90;999.90;;;11.40;99.90;;;;;;5054793;28;20037;-81
2024/03/03 11:30:10;;;;;;;1999.90;999.90;;;11.40;99.90;;;;;;5054826;28;20021;-78
2024/03/03 11:32:36;;;;;;;1999.90;999.90;;;11.30;99.90;;;;;;5054609;28;20116;-81
2024/03/03 11:35:04;;;;;;;1999.90;999.90;;;11.20;99.90;;;;;;5053482;28;20061;-80
2024/03/03 11:37:30;;;;;;;1999.90;999.90;;;11.20;99.90;;;;;;5055056;28;20392;-77
2024/03/03 11:40:00;;;;;;;1999.90;999.90;;;11.10;99.90;;;;;;5060172;28;20086;-81
2024/03/03 11:42:32;;;;;;;1999.90;999.90;;;10.90;99.90;;;;;;5054714;28;20488;-78
2024/03/03 11:45:02;;;;;;;1999.90;999.90;;;11.20;99.90;;;;;;5053231;28;20427;-78
2024/03/03 11:47:35;;;;;;;1999.90;999.90;;;11.30;99.90;;;;;;5065215;28;20045;-81
2024/03/03 11:50:19;;;;;;;1999.90;999.90;;;11.10;99.90;;;;;;5054286;28;20029;-78
2024/03/03 11:52:50;;;;;;;1999.90;999.90;;;10.90;99.90;;;;;;5054380;28;20024;-81
2024/03/03 11:55:23;;;;;;;1999.90;999.90;;;10.80;99.90;;;;;;5062498;28;20039;-82
2024/03/03 11:57:55;;;;;;;1999.90;999.90;;;11.20;99.90;;;;;;5054054;28;20487;-81
2024/03/03 12:00:26;;;;;;;1999.90;999.90;;;11.60;99.90;;;;;;5054391;28;20082;-81
2024/03/03 12:02:54;;;;;;;1999.90;999.90;;;12.00;99.90;;;;;;5055137;28;20028;-81